Time;durP1;ratioP1;P1;durP2;ratioP2;P2;SDS_P1;SDS_P2;PMS_P1;PMS_P2;Temp;Humidity;BMP_temperature;BMP_pressure;BME280_temperature;BME280_humidity;BME280_pressure;Samples;Min_cycle;Max_cycle;Signal;HPM_P1;HPM_P2
2021/12/28 00:01:00;;;;;;;14.00;10.40;;;;;;;;;;106267;1286;63507;-29
2021/12/28 00:03:27;;;;;;;15.40;10.50;;;;;;;;;;106166;1288;63780;-29
2021/12/28 00:05:54;;;;;;;16.60;10.70;;;;;;;;;;106177;1289;64795;-29
2021/12/28 00:08:22;;;;;;;12.20;9.60;;;;;;;;;;106182;1287;63093;-22
2021/12/28 00:10:49;;;;;;;12.80;9.90;;;;;;;;;;106175;1290;63087;-22
2021/12/28 00:13:16;;;;;;;15.80;10.20;;;;;;;;;;105908;1291;63322;-22
2021/12/28 00:15:49;;;;;;;14.60;10.40;;;;;;;;;;106151;1288;63078;-22
2021/12/28 00:18:16;;;;;;;13.70;10.20;;;;;;;;;;106123;1288;63136;-33
2021/12/28 00:20:46;;;;;;;13.70;9.90;;;;;;;;;;106018;1288;63280;-30
2021/12/28 00:23:17;;;;;;;13.80;10.50;;;;;;;;;;106132;1288;63216;-22
2021/12/28 00:25:49;;;;;;;13.50;10.40;;;;;;;;;;106056;1288;63167;-21
2021/12/28 00:28:17;;;;;;;16.00;11.20;;;;;;;;;;105916;1288;63171;-28
2021/12/28 00:30:44;;;;;;;16.70;10.50;;;;;;;;;;106212;1288;63199;-28
2021/12/28 00:33:13;;;;;;;14.20;10.60;;;;;;;;;;106165;1288;63195;-36
2021/12/28 00:35:41;;;;;;;14.40;10.70;;;;;;;;;;106226;1288;63152;-30
2021/12/28 00:38:09;;;;;;;15.70;10.40;;;;;;;;;;106201;1288;63073;-29
2021/12/28 00:40:37;;;;;;;14.90;11.00;;;;;;;;;;106224;1287;63200;-29
2021/12/28 00:43:05;;;;;;;14.30;10.10;;;;;;;;;;105941;1292;63167;-22
2021/12/28 00:45:32;;;;;;;12.80;9.50;;;;;;;;;;105892;1293;63177;-28
2021/12/28 00:47:59;;;;;;;14.00;9.90;;;;;;;;;;105914;1292;63073;-29
2021/12/28 00:50:29;;;;;;;13.80;9.30;;;;;;;;;;106167;1288;63213;-28
2021/12/28 00:52:56;;;;;;;13.70;10.10;;;;;;;;;;106083;1288;63197;-28
2021/12/28 00:55:24;;;;;;;13.70;10.60;;;;;;;;;;106185;1288;63100;-29
2021/12/28 00:57:52;;;;;;;14.50;10.40;;;;;;;;;;106158;1288;63073;-21
2021/12/28 01:00:21;;;;;;;13.80;10.10;;;;;;;;;;105901;1290;63275;-22
2021/12/28 01:02:49;;;;;;;14.50;10.10;;;;;;;;;;106168;1288;63215;-28
2021/12/28 01:05:16;;;;;;;14.70;9.90;;;;;;;;;;106222;1289;63123;-28
2021/12/28 01:07:43;;;;;;;12.60;9.40;;;;;;;;;;106184;1287;63231;-28
2021/12/28 01:10:12;;;;;;;13.20;9.90;;;;;;;;;;106204;1288;63171;-28
2021/12/28 01:12:39;;;;;;;13.10;10.20;;;;;;;;;;106218;1283;63313;-22
2021/12/28 01:15:08;;;;;;;14.50;10.10;;;;;;;;;;106185;1288;63193;-21
2021/12/28 01:17:36;;;;;;;13.00;10.00;;;;;;;;;;106253;1287;63194;-23
2021/12/28 01:20:05;;;;;;;13.90;9.80;;;;;;;;;;106153;1291;63284;-22
2021/12/28 01:22:33;;;;;;;13.80;9.60;;;;;;;;;;106176;1288;63190;-29
2021/12/28 01:25:00;;;;;;;12.70;9.80;;;;;;;;;;106181;1288;63191;-29
2021/12/28 01:27:27;;;;;;;13.20;9.60;;;;;;;;;;106168;1287;63162;-29
2021/12/28 01:29:54;;;;;;;12.50;9.60;;;;;;;;;;106175;1289;63192;-29
2021/12/28 01:32:21;;;;;;;12.70;9.60;;;;;;;;;;106187;1286;63091;-21
2021/12/28 01:34:48;;;;;;;13.70;9.80;;;;;;;;;;106186;1289;63332;-21
2021/12/28 01:37:15;;;;;;;12.00;9.20;;;;;;;;;;106189;1286;63186;-27
2021/12/28 01:39:41;;;;;;;12.70;8.90;;;;;;;;;;106179;1286;63191;-29
2021/12/28 01:42:09;;;;;;;11.20;9.20;;;;;;;;;;106057;1289;63294;-20
2021/12/28 01:44:36;;;;;;;13.00;9.20;;;;;;;;;;106347;1289;63085;-22
2021/12/28 01:47:03;;;;;;;11.60;9.60;;;;;;;;;;106338;1289;63060;-30
2021/12/28 01:49:30;;;;;;;13.00;10.30;;;;;;;;;;106340;1285;63090;-28
2021/12/28 01:51:57;;;;;;;13.40;9.40;;;;;;;;;;106346;1285;63209;-30
2021/12/28 01:54:24;;;;;;;12.70;9.20;;;;;;;;;;106369;1284;63292;-29
2021/12/28 01:56:51;;;;;;;12.20;9.00;;;;;;;;;;106323;1286;63040;-23
2021/12/28 01:59:19;;;;;;;12.30;9.70;;;;;;;;;;106105;1289;63247;-23
2021/12/28 02:01:47;;;;;;;14.20;9.40;;;;;;;;;;106794;1282;63198;-30
2021/12/28 02:04:27;;;;;;;11.70;9.00;;;;;;;;;;106849;1283;63074;-29
2021/12/28 02:06:55;;;;;;;12.70;9.50;;;;;;;;;;106830;1282;63694;-21
2021/12/28 02:09:22;;;;;;;12.60;9.30;;;;;;;;;;106840;1286;63303;-22
2021/12/28 02:11:49;;;;;;;12.30;9.10;;;;;;;;;;106844;1282;63804;-22
2021/12/28 02:14:16;;;;;;;12.70;9.70;;;;;;;;;;106867;1283;63194;-21
2021/12/28 02:16:44;;;;;;;12.30;9.00;;;;;;;;;;106873;1282;64067;-21
2021/12/28 02:19:12;;;;;;;14.20;9.60;;;;;;;;;;106822;1282;64021;-22
2021/12/28 02:21:40;;;;;;;12.90;9.40;;;;;;;;;;106873;1283;63890;-27
2021/12/28 02:24:08;;;;;;;12.50;8.60;;;;;;;;;;106600;1283;65107;-28
2021/12/28 02:26:35;;;;;;;12.40;9.50;;;;;;;;;;106860;1282;64108;-28
2021/12/28 02:29:02;;;;;;;12.40;8.80;;;;;;;;;;106792;1282;63992;-34
2021/12/28 02:31:30;;;;;;;14.20;9.70;;;;;;;;;;106845;1286;64130;-29
2021/12/28 02:33:57;;;;;;;12.50;9.40;;;;;;;;;;106847;1282;63986;-28
2021/12/28 02:36:26;;;;;;;12.90;9.30;;;;;;;;;;106767;1282;63839;-29
2021/12/28 02:38:53;;;;;;;12.70;9.40;;;;;;;;;;106600;1285;63919;-33
2021/12/28 02:41:20;;;;;;;12.20;9.60;;;;;;;;;;106828;1283;63982;-23
2021/12/28 02:43:48;;;;;;;12.30;9.40;;;;;;;;;;106856;1282;64057;-22
2021/12/28 02:46:16;;;;;;;13.10;9.20;;;;;;;;;;106828;1282;63919;-22
2021/12/28 02:48:44;;;;;;;12.90;8.80;;;;;;;;;;106859;1282;64384;-21
2021/12/28 02:51:12;;;;;;;12.20;8.80;;;;;;;;;;106858;1283;63980;-24
2021/12/28 02:53:40;;;;;;;12.90;8.90;;;;;;;;;;106617;1285;64085;-21
2021/12/28 02:56:07;;;;;;;13.00;9.50;;;;;;;;;;106825;1282;63903;-30
2021/12/28 02:58:39;;;;;;;11.90;9.20;;;;;;;;;;106833;1282;63902;-36
2021/12/28 03:01:25;;;;;;;12.70;9.20;;;;;;;;;;106838;1282;64042;-27
2021/12/28 03:03:58;;;;;;;12.50;8.90;;;;;;;;;;106859;1282;63984;-28
2021/12/28 03:06:25;;;;;;;14.20;10.10;;;;;;;;;;106815;1283;63858;-28
2021/12/28 03:08:54;;;;;;;12.70;9.10;;;;;;;;;;106822;1282;63924;-29
2021/12/28 03:11:22;;;;;;;13.50;9.70;;;;;;;;;;106849;1282;63929;-29
2021/12/28 03:13:51;;;;;;;12.30;9.90;;;;;;;;;;106863;1283;63916;-29
2021/12/28 03:16:18;;;;;;;12.70;9.40;;;;;;;;;;106857;1282;64025;-23
2021/12/28 03:18:45;;;;;;;12.90;9.40;;;;;;;;;;106836;1283;63964;-27
2021/12/28 03:21:14;;;;;;;12.70;9.50;;;;;;;;;;106853;1279;64003;-21
2021/12/28 03:23:41;;;;;;;12.50;9.30;;;;;;;;;;106615;1283;63902;-20
2021/12/28 03:26:08;;;;;;;12.90;9.50;;;;;;;;;;106821;1282;63980;-32
2021/12/28 03:28:39;;;;;;;13.00;9.80;;;;;;;;;;106844;1283;64037;-35
2021/12/28 03:31:07;;;;;;;12.70;9.70;;;;;;;;;;106860;1274;64147;-21
2021/12/28 03:33:36;;;;;;;14.60;9.70;;;;;;;;;;106871;1281;64683;-22
2021/12/28 03:36:03;;;;;;;13.50;9.60;;;;;;;;;;106811;1282;63911;-25
2021/12/28 03:38:30;;;;;;;12.50;8.80;;;;;;;;;;106613;1285;64016;-33
2021/12/28 03:40:58;;;;;;;13.70;9.90;;;;;;;;;;106833;1282;63919;-33
2021/12/28 03:43:28;;;;;;;13.50;9.50;;;;;;;;;;106849;1282;63967;-29
2021/12/28 03:45:56;;;;;;;14.10;9.80;;;;;;;;;;106634;1286;64018;-29
2021/12/28 03:48:23;;;;;;;12.90;9.50;;;;;;;;;;106884;1277;64021;-30
2021/12/28 03:50:50;;;;;;;12.10;9.00;;;;;;;;;;106828;1282;63972;-30
2021/12/28 03:53:17;;;;;;;13.00;9.30;;;;;;;;;;106660;1277;63980;-21
2021/12/28 03:55:44;;;;;;;13.60;9.50;;;;;;;;;;106880;1282;64071;-20
2021/12/28 03:58:11;;;;;;;12.40;9.50;;;;;;;;;;106803;1282;64010;-29
2021/12/28 04:00:41;;;;;;;11.90;9.00;;;;;;;;;;106819;1282;64009;-29
2021/12/28 04:03:08;;;;;;;13.10;9.10;;;;;;;;;;106655;1283;64037;-22
2021/12/28 04:05:36;;;;;;;13.10;9.40;;;;;;;;;;106810;1282;63940;-23
2021/12/28 04:08:03;;;;;;;12.70;9.10;;;;;;;;;;106872;1282;64019;-21
2021/12/28 04:10:38;;;;;;;13.20;9.40;;;;;;;;;;106643;1282;64212;-21
2021/12/28 04:13:05;;;;;;;13.80;9.60;;;;;;;;;;106851;1283;64150;-31
2021/12/28 04:15:33;;;;;;;13.10;9.40;;;;;;;;;;106838;1285;64006;-28
2021/12/28 04:18:00;;;;;;;12.80;9.20;;;;;;;;;;106827;1282;63858;-22
2021/12/28 04:20:27;;;;;;;13.20;9.40;;;;;;;;;;106851;1282;64021;-21
2021/12/28 04:22:54;;;;;;;13.30;9.20;;;;;;;;;;106838;1282;64022;-28
2021/12/28 04:25:21;;;;;;;12.90;9.20;;;;;;;;;;106805;1282;64015;-32
2021/12/28 04:27:48;;;;;;;12.60;9.50;;;;;;;;;;106816;1282;64037;-29
2021/12/28 04:30:16;;;;;;;12.30;9.00;;;;;;;;;;106614;1287;63869;-29
2021/12/28 04:32:44;;;;;;;12.20;9.00;;;;;;;;;;106844;1282;64044;-28
2021/12/28 04:35:12;;;;;;;12.60;8.80;;;;;;;;;;106847;1282;64381;-28
2021/12/28 04:37:39;;;;;;;13.50;9.70;;;;;;;;;;106826;1282;64057;-28
2021/12/28 04:40:07;;;;;;;13.70;9.20;;;;;;;;;;106831;1283;63900;-29
2021/12/28 04:42:34;;;;;;;13.20;9.50;;;;;;;;;;106885;1282;64010;-20
2021/12/28 04:45:01;;;;;;;12.80;9.00;;;;;;;;;;106834;1282;64016;-21
2021/12/28 04:47:28;;;;;;;12.30;9.20;;;;;;;;;;106878;1282;64128;-22
2021/12/28 04:49:55;;;;;;;12.90;9.10;;;;;;;;;;106862;1283;64114;-22
2021/12/28 04:52:22;;;;;;;12.70;9.40;;;;;;;;;;106830;1282;64021;-28
2021/12/28 04:54:49;;;;;;;11.20;9.00;;;;;;;;;;106730;1286;63972;-31
2021/12/28 04:57:16;;;;;;;11.10;8.40;;;;;;;;;;106816;1279;63281;-21
2021/12/28 04:59:43;;;;;;;11.60;8.90;;;;;;;;;;106818;1282;63986;-22
2021/12/28 05:02:10;;;;;;;10.80;8.50;;;;;;;;;;106858;1282;64017;-29
2021/12/28 05:04:37;;;;;;;12.60;9.60;;;;;;;;;;106832;1282;63935;-29
2021/12/28 05:07:04;;;;;;;11.90;9.10;;;;;;;;;;106871;1283;63971;-29
2021/12/28 05:09:31;;;;;;;11.80;9.10;;;;;;;;;;106829;1283;63914;-29
2021/12/28 05:11:58;;;;;;;12.90;9.30;;;;;;;;;;106974;1273;64017;-30
2021/12/28 05:14:25;;;;;;;13.90;9.60;;;;;;;;;;106535;1285;64034;-29
2021/12/28 05:16:52;;;;;;;12.20;9.30;;;;;;;;;;106350;1288;63912;-20
2021/12/28 05:19:19;;;;;;;11.70;8.80;;;;;;;;;;106540;1285;63920;-23
2021/12/28 05:21:46;;;;;;;13.80;9.50;;;;;;;;;;106351;1289;63974;-20
2021/12/28 05:24:13;;;;;;;13.70;10.10;;;;;;;;;;106392;1285;63913;-21
2021/12/28 05:26:39;;;;;;;12.30;9.10;;;;;;;;;;106536;1289;64045;-24
2021/12/28 05:29:06;;;;;;;11.50;8.40;;;;;;;;;;106392;1288;64436;-21
2021/12/28 05:31:34;;;;;;;12.40;9.30;;;;;;;;;;106575;1285;64078;-29
2021/12/28 05:34:01;;;;;;;11.60;8.80;;;;;;;;;;106405;1288;64023;-28
2021/12/28 05:36:28;;;;;;;13.60;8.50;;;;;;;;;;106541;1288;63929;-30
2021/12/28 05:38:55;;;;;;;11.60;8.80;;;;;;;;;;106305;1285;64165;-29
2021/12/28 05:41:22;;;;;;;12.40;8.60;;;;;;;;;;106343;1289;64020;-24
2021/12/28 05:43:49;;;;;;;13.10;9.50;;;;;;;;;;106544;1286;64150;-21
2021/12/28 05:46:16;;;;;;;12.30;9.10;;;;;;;;;;106521;1288;64095;-22
2021/12/28 05:48:43;;;;;;;13.00;9.10;;;;;;;;;;106550;1285;64069;-22
2021/12/28 05:51:10;;;;;;;11.20;8.30;;;;;;;;;;106390;1285;64014;-21
2021/12/28 05:53:38;;;;;;;13.00;9.70;;;;;;;;;;106552;1285;63920;-22
2021/12/28 05:56:04;;;;;;;12.20;9.10;;;;;;;;;;106514;1285;64048;-27
2021/12/28 05:58:32;;;;;;;11.20;8.70;;;;;;;;;;106575;1286;63973;-28
2021/12/28 06:00:59;;;;;;;12.50;8.90;;;;;;;;;;106527;1286;63967;-29
2021/12/28 06:03:26;;;;;;;11.70;9.40;;;;;;;;;;106549;1285;64027;-21
2021/12/28 06:05:53;;;;;;;11.80;9.30;;;;;;;;;;106496;1285;64115;-21
2021/12/28 06:08:20;;;;;;;12.20;9.00;;;;;;;;;;106400;1285;64033;-30
2021/12/28 06:10:47;;;;;;;12.70;9.20;;;;;;;;;;106550;1288;64028;-27
2021/12/28 06:13:13;;;;;;;12.30;8.80;;;;;;;;;;106553;1285;63988;-24
2021/12/28 06:15:42;;;;;;;12.90;9.10;;;;;;;;;;106392;1285;64355;-22
2021/12/28 06:18:09;;;;;;;12.00;8.70;;;;;;;;;;106549;1286;64025;-28
2021/12/28 06:20:36;;;;;;;10.00;8.20;;;;;;;;;;106557;1288;64545;-29
2021/12/28 06:23:03;;;;;;;12.80;8.80;;;;;;;;;;106351;1286;208370;-29
2021/12/28 06:25:30;;;;;;;10.40;8.50;;;;;;;;;;106380;1288;64019;-29
2021/12/28 06:27:56;;;;;;;12.10;9.00;;;;;;;;;;106533;1287;63896;-22
2021/12/28 06:30:23;;;;;;;11.70;9.10;;;;;;;;;;106390;1284;64042;-22
2021/12/28 06:32:50;;;;;;;11.60;8.90;;;;;;;;;;106542;1289;64657;-28
2021/12/28 06:35:17;;;;;;;11.80;9.00;;;;;;;;;;106393;1285;63948;-29
2021/12/28 06:37:44;;;;;;;12.30;8.80;;;;;;;;;;106557;1285;63890;-29
2021/12/28 06:40:11;;;;;;;11.90;8.90;;;;;;;;;;106373;1288;64033;-29
2021/12/28 06:42:39;;;;;;;11.00;8.70;;;;;;;;;;106516;1289;64013;-21
2021/12/28 06:45:06;;;;;;;11.40;8.70;;;;;;;;;;106525;1277;64010;-21
2021/12/28 06:47:33;;;;;;;13.40;9.70;;;;;;;;;;106510;1285;64014;-22
2021/12/28 06:50:00;;;;;;;11.60;9.10;;;;;;;;;;106424;1285;63981;-21
2021/12/28 06:52:27;;;;;;;11.60;8.60;;;;;;;;;;106521;1289;64010;-29
2021/12/28 06:54:53;;;;;;;12.70;9.30;;;;;;;;;;106540;1285;64040;-30
2021/12/28 06:57:22;;;;;;;12.00;8.70;;;;;;;;;;106401;1288;63882;-32
2021/12/28 06:59:49;;;;;;;11.30;8.60;;;;;;;;;;106530;1285;63915;-29
2021/12/28 07:02:17;;;;;;;11.60;8.50;;;;;;;;;;106369;1284;64079;-29
2021/12/28 07:04:45;;;;;;;11.20;8.60;;;;;;;;;;106519;1285;63979;-29
2021/12/28 07:07:12;;;;;;;10.80;8.00;;;;;;;;;;106216;1291;64031;-29
2021/12/28 07:09:39;;;;;;;11.30;8.30;;;;;;;;;;106440;1285;63960;-27
2021/12/28 07:12:08;;;;;;;13.40;9.00;;;;;;;;;;106580;1285;63974;-20
2021/12/28 07:14:35;;;;;;;10.30;8.60;;;;;;;;;;106535;1289;64126;-23
2021/12/28 07:17:02;;;;;;;11.50;8.10;;;;;;;;;;106539;1286;64017;-29
2021/12/28 07:19:29;;;;;;;12.90;8.40;;;;;;;;;;106341;1286;64019;-28
2021/12/28 07:21:57;;;;;;;11.20;8.50;;;;;;;;;;106317;1286;64047;-29
2021/12/28 07:24:24;;;;;;;12.20;9.00;;;;;;;;;;106516;1288;63981;-28
2021/12/28 07:26:53;;;;;;;10.80;8.90;;;;;;;;;;106608;1283;64317;-29
2021/12/28 07:29:20;;;;;;;10.50;8.50;;;;;;;;;;106948;1282;64000;-31
2021/12/28 07:31:48;;;;;;;11.50;8.90;;;;;;;;;;106856;1285;64010;-26
2021/12/28 07:34:15;;;;;;;11.50;8.70;;;;;;;;;;106940;1284;63864;-22
2021/12/28 07:36:42;;;;;;;12.00;8.20;;;;;;;;;;106714;1285;64721;-29
2021/12/28 07:39:08;;;;;;;12.40;9.00;;;;;;;;;;106723;1286;64151;-29
2021/12/28 07:41:36;;;;;;;11.30;8.50;;;;;;;;;;106796;1285;63918;-23
2021/12/28 07:44:03;;;;;;;10.30;7.80;;;;;;;;;;106789;1285;63996;-22
2021/12/28 07:46:30;;;;;;;11.20;8.70;;;;;;;;;;106939;1285;64017;-22
2021/12/28 07:48:57;;;;;;;12.70;9.40;;;;;;;;;;106952;1285;63996;-23
2021/12/28 07:51:24;;;;;;;12.00;8.30;;;;;;;;;;106840;1282;64027;-30
2021/12/28 07:53:51;;;;;;;11.60;8.30;;;;;;;;;;106828;1282;63908;-28
2021/12/28 07:56:18;;;;;;;11.70;8.70;;;;;;;;;;106860;1285;63973;-29
2021/12/28 07:58:45;;;;;;;12.30;8.80;;;;;;;;;;106977;1284;64112;-31
2021/12/28 08:01:13;;;;;;;12.10;8.80;;;;;;;;;;106821;1285;64080;-23
2021/12/28 08:03:40;;;;;;;10.50;8.60;;;;;;;;;;106903;1285;63926;-22
2021/12/28 08:06:07;;;;;;;10.80;8.30;;;;;;;;;;106852;1283;63989;-22
2021/12/28 08:08:34;;;;;;;11.60;8.50;;;;;;;;;;106929;1285;64068;-23
2021/12/28 08:11:01;;;;;;;13.00;8.90;;;;;;;;;;106927;1284;63986;-26
2021/12/28 08:13:29;;;;;;;11.90;8.60;;;;;;;;;;106924;1283;63928;-22
2021/12/28 08:15:56;;;;;;;12.60;8.40;;;;;;;;;;106904;1286;64007;-22
2021/12/28 08:18:23;;;;;;;12.60;9.00;;;;;;;;;;106835;1286;63907;-24
2021/12/28 08:20:50;;;;;;;12.60;9.10;;;;;;;;;;106819;1281;63996;-32
2021/12/28 08:23:17;;;;;;;13.40;8.90;;;;;;;;;;106899;1284;64056;-28
2021/12/28 08:25:44;;;;;;;13.10;9.20;;;;;;;;;;106910;1286;64011;-28
2021/12/28 08:28:11;;;;;;;13.70;8.70;;;;;;;;;;106925;1285;64105;-35
2021/12/28 08:30:38;;;;;;;12.80;8.90;;;;;;;;;;106907;1284;64074;-29
2021/12/28 08:33:06;;;;;;;12.30;8.20;;;;;;;;;;106802;1282;63950;-27
2021/12/28 08:35:33;;;;;;;12.40;9.00;;;;;;;;;;106904;1285;63899;-22
2021/12/28 08:38:00;;;;;;;12.80;9.10;;;;;;;;;;106949;1285;64090;-33
2021/12/28 08:40:27;;;;;;;16.90;9.80;;;;;;;;;;106883;1282;63937;-28
2021/12/28 08:42:55;;;;;;;16.80;9.70;;;;;;;;;;106891;1282;64087;-28
2021/12/28 08:45:22;;;;;;;13.70;9.00;;;;;;;;;;106913;1283;64017;-28
2021/12/28 08:47:49;;;;;;;15.70;9.10;;;;;;;;;;106914;1284;64010;-21
2021/12/28 08:50:17;;;;;;;15.30;9.10;;;;;;;;;;106919;1285;63987;-22
2021/12/28 08:52:44;;;;;;;13.90;9.30;;;;;;;;;;106779;1285;63983;-22
2021/12/28 08:55:13;;;;;;;14.00;9.20;;;;;;;;;;106573;1281;63977;-23
2021/12/28 08:57:40;;;;;;;18.90;9.70;;;;;;;;;;106808;1285;63914;-22
2021/12/28 09:00:10;;;;;;;13.10;9.70;;;;;;;;;;106795;1286;65185;-22
2021/12/28 09:02:37;;;;;;;14.60;8.60;;;;;;;;;;106784;1282;63955;-30
2021/12/28 09:05:05;;;;;;;13.70;9.90;;;;;;;;;;106817;1283;64432;-29
2021/12/28 09:07:32;;;;;;;12.10;9.50;;;;;;;;;;106821;1285;64019;-24
2021/12/28 09:10:00;;;;;;;13.60;8.80;;;;;;;;;;106608;1285;64353;-24
2021/12/28 09:12:27;;;;;;;12.10;9.20;;;;;;;;;;106836;1285;64025;-31
2021/12/28 09:14:54;;;;;;;12.40;8.80;;;;;;;;;;106665;1285;63930;-28
2021/12/28 09:17:21;;;;;;;11.80;8.70;;;;;;;;;;106861;1284;63921;-29
2021/12/28 09:19:48;;;;;;;12.50;8.50;;;;;;;;;;106836;1286;64021;-29
2021/12/28 09:22:15;;;;;;;13.20;8.80;;;;;;;;;;106818;1286;63990;-29
2021/12/28 09:24:43;;;;;;;14.10;9.70;;;;;;;;;;106746;1284;64649;-28
2021/12/28 09:27:10;;;;;;;14.30;9.00;;;;;;;;;;106706;1283;64033;-23
2021/12/28 09:29:42;;;;;;;12.30;9.50;;;;;;;;;;106884;1285;64124;-23
2021/12/28 09:32:10;;;;;;;14.00;9.70;;;;;;;;;;106789;1286;64096;-22
2021/12/28 09:34:37;;;;;;;13.90;9.40;;;;;;;;;;106816;1285;64020;-23
2021/12/28 09:37:04;;;;;;;13.90;9.30;;;;;;;;;;106741;1283;64004;-22
2021/12/28 09:39:31;;;;;;;11.60;9.20;;;;;;;;;;106790;1285;63932;-23
2021/12/28 09:41:59;;;;;;;14.80;9.40;;;;;;;;;;106791;1282;63977;-29
2021/12/28 09:44:28;;;;;;;12.30;9.40;;;;;;;;;;106834;1285;64188;-29
2021/12/28 09:46:56;;;;;;;11.70;8.80;;;;;;;;;;106594;1284;64033;-23
2021/12/28 09:49:24;;;;;;;11.60;9.00;;;;;;;;;;106838;1283;63870;-24
2021/12/28 09:51:52;;;;;;;12.50;9.10;;;;;;;;;;106704;1286;64084;-25
2021/12/28 09:54:22;;;;;;;12.80;8.90;;;;;;;;;;106827;1283;64028;-23
2021/12/28 09:56:49;;;;;;;11.70;9.10;;;;;;;;;;106873;1286;63980;-35
2021/12/28 09:59:16;;;;;;;12.90;9.10;;;;;;;;;;106721;1285;65590;-28
2021/12/28 10:01:44;;;;;;;13.40;9.60;;;;;;;;;;106835;1275;64105;-29
2021/12/28 10:04:11;;;;;;;13.40;9.40;;;;;;;;;;106753;1286;64029;-30
2021/12/28 10:06:39;;;;;;;13.10;10.20;;;;;;;;;;106587;1283;64032;-29
2021/12/28 10:09:08;;;;;;;11.70;9.30;;;;;;;;;;106732;1283;64032;-29
2021/12/28 10:11:39;;;;;;;13.30;9.70;;;;;;;;;;106746;1285;64019;-23
2021/12/28 10:14:10;;;;;;;12.40;9.60;;;;;;;;;;106702;1286;64013;-23
2021/12/28 10:16:46;;;;;;;13.60;10.10;;;;;;;;;;106734;1286;63933;-23
2021/12/28 10:19:32;;;;;;;12.50;9.20;;;;;;;;;;106681;1284;64384;-22
2021/12/28 10:22:17;;;;;;;14.10;9.50;;;;;;;;;;106682;1282;64113;-22
2021/12/28 10:24:44;;;;;;;14.70;9.40;;;;;;;;;;106720;1284;64001;-23
2021/12/28 10:27:13;;;;;;;13.50;9.00;;;;;;;;;;106836;1283;64116;-29
2021/12/28 10:29:40;;;;;;;12.60;9.50;;;;;;;;;;106808;1285;63905;-30
2021/12/28 10:32:22;;;;;;;14.20;9.10;;;;;;;;;;106798;1282;63933;-29
2021/12/28 10:34:51;;;;;;;14.20;9.60;;;;;;;;;;108179;1283;63960;-27
2021/12/28 10:37:22;;;;;;;14.10;10.00;;;;;;;;;;106843;1283;63914;-21
2021/12/28 10:39:51;;;;;;;13.00;10.70;;;;;;;;;;106597;1285;64017;-22
2021/12/28 10:42:37;;;;;;;14.30;10.70;;;;;;;;;;106728;1282;64080;-22
2021/12/28 10:45:07;;;;;;;13.90;9.90;;;;;;;;;;106833;1286;64068;-22
2021/12/28 10:47:34;;;;;;;13.40;10.10;;;;;;;;;;106523;1285;64094;-28
2021/12/28 10:50:08;;;;;;;13.00;9.90;;;;;;;;;;106435;1286;64110;-29
2021/12/28 10:52:39;;;;;;;11.50;9.90;;;;;;;;;;106803;1284;64134;-29
2021/12/28 10:55:21;;;;;;;15.30;10.10;;;;;;;;;;106733;1283;64016;-29
2021/12/28 10:57:49;;;;;;;12.60;9.60;;;;;;;;;;106803;1283;63964;-30
2021/12/28 11:00:37;;;;;;;12.80;10.10;;;;;;;;;;106607;1286;64168;-29
2021/12/28 11:03:16;;;;;;;12.90;10.30;;;;;;;;;;106713;1285;64019;-27
2021/12/28 11:05:44;;;;;;;13.00;10.50;;;;;;;;;;106738;1285;63965;-29
2021/12/28 11:08:11;;;;;;;14.50;10.10;;;;;;;;;;106833;1283;63992;-30
2021/12/28 11:10:43;;;;;;;13.40;10.40;;;;;;;;;;106746;1285;63869;-30
2021/12/28 11:13:12;;;;;;;13.30;10.10;;;;;;;;;;106741;1284;64063;-29
2021/12/28 11:15:44;;;;;;;13.40;10.00;;;;;;;;;;106468;1285;64004;-29
2021/12/28 11:18:19;;;;;;;12.80;9.90;;;;;;;;;;106612;1285;64009;-33
2021/12/28 11:20:47;;;;;;;15.00;9.90;;;;;;;;;;106837;1283;63894;-29
2021/12/28 11:23:18;;;;;;;13.30;10.50;;;;;;;;;;106588;1285;65180;-29
2021/12/28 11:25:46;;;;;;;15.30;10.60;;;;;;;;;;106838;1282;63911;-29
2021/12/28 11:28:15;;;;;;;15.30;10.20;;;;;;;;;;106836;1282;64017;-35
2021/12/28 11:31:01;;;;;;;13.20;10.10;;;;;;;;;;106537;1286;64058;-25
2021/12/28 11:34:04;;;;;;;14.30;10.50;;;;;;;;;;106745;1285;64006;-23
2021/12/28 11:36:38;;;;;;;13.60;10.40;;;;;;;;;;105757;1294;64030;-29
2021/12/28 11:39:08;;;;;;;16.30;10.20;;;;;;;;;;106608;1285;65193;-29
2021/12/28 11:41:35;;;;;;;15.50;10.50;;;;;;;;;;106566;1286;64611;-33
2021/12/28 11:44:03;;;;;;;11.80;9.70;;;;;;;;;;106714;1285;64007;-34
2021/12/28 11:46:30;;;;;;;13.20;11.00;;;;;;;;;;106732;1278;64045;-24
2021/12/28 11:48:57;;;;;;;13.50;10.50;;;;;;;;;;106752;1282;63921;-24
2021/12/28 11:51:24;;;;;;;13.70;10.30;;;;;;;;;;106715;1282;64585;-29
2021/12/28 11:53:53;;;;;;;12.40;10.00;;;;;;;;;;106899;1281;63918;-31
2021/12/28 11:56:22;;;;;;;13.50;10.10;;;;;;;;;;106722;1283;64019;-25
2021/12/28 11:58:54;;;;;;;12.70;9.60;;;;;;;;;;106844;1285;64999;-31
2021/12/28 12:01:40;;;;;;;13.70;10.10;;;;;;;;;;106811;1282;63861;-34
2021/12/28 12:04:25;;;;;;;12.00;9.40;;;;;;;;;;106759;1285;64103;-34
2021/12/28 12:07:12;;;;;;;11.40;9.70;;;;;;;;;;106732;1281;64048;-29
2021/12/28 12:09:48;;;;;;;12.90;9.70;;;;;;;;;;106745;1283;65615;-31
2021/12/28 12:12:20;;;;;;;13.00;10.20;;;;;;;;;;106718;1285;63891;-23
2021/12/28 12:14:52;;;;;;;13.90;10.10;;;;;;;;;;106578;1285;63932;-23
2021/12/28 12:17:26;;;;;;;11.60;9.70;;;;;;;;;;106768;1285;63932;-31
2021/12/28 12:19:54;;;;;;;12.60;10.10;;;;;;;;;;106753;1282;64014;-24
2021/12/28 12:22:32;;;;;;;12.00;10.20;;;;;;;;;;106443;1286;64009;-33
2021/12/28 12:25:00;;;;;;;12.30;9.60;;;;;;;;;;106708;1285;63997;-31
2021/12/28 12:27:43;;;;;;;12.40;10.50;;;;;;;;;;106703;1285;64033;-31
2021/12/28 12:30:17;;;;;;;12.90;10.70;;;;;;;;;;106696;1281;64061;-22
2021/12/28 12:32:56;;;;;;;14.20;11.10;;;;;;;;;;106846;1282;63902;-22
2021/12/28 12:35:38;;;;;;;13.30;10.70;;;;;;;;;;106832;1283;63997;-22
2021/12/28 12:38:14;;;;;;;13.00;10.20;;;;;;;;;;106754;1282;63925;-31
2021/12/28 12:41:03;;;;;;;14.40;11.30;;;;;;;;;;106846;1285;64017;-31
2021/12/28 12:43:36;;;;;;;14.80;10.80;;;;;;;;;;106821;1285;64116;-23
2021/12/28 12:46:17;;;;;;;14.60;11.50;;;;;;;;;;106744;1283;64226;-22
2021/12/28 12:48:44;;;;;;;13.10;11.20;;;;;;;;;;106840;1281;64043;-23
2021/12/28 12:51:23;;;;;;;11.80;10.60;;;;;;;;;;106723;1285;63983;-22
2021/12/28 12:53:54;;;;;;;12.60;10.70;;;;;;;;;;106845;1285;64001;-23
2021/12/28 12:56:21;;;;;;;13.90;11.60;;;;;;;;;;106532;1285;63919;-22
2021/12/28 12:58:49;;;;;;;13.60;11.90;;;;;;;;;;106832;1282;63919;-23
2021/12/28 13:01:33;;;;;;;14.80;12.60;;;;;;;;;;106820;1282;64028;-31
2021/12/28 13:04:00;;;;;;;;;;;;;;;;;;106770;1285;64051;-29
2021/12/28 13:06:39;;;;;;;15.00;12.10;;;;;;;;;;106794;1284;63905;-32
2021/12/28 13:09:06;;;;;;;14.60;12.70;;;;;;;;;;106874;1280;64035;-32
2021/12/28 13:11:34;;;;;;;14.10;12.60;;;;;;;;;;106886;1282;64058;-31
2021/12/28 13:14:01;;;;;;;14.90;12.10;;;;;;;;;;106878;1282;64103;-30
2021/12/28 13:16:29;;;;;;;14.70;12.70;;;;;;;;;;106828;1281;64103;-23
2021/12/28 13:19:28;;;;;;;13.10;11.70;;;;;;;;;;106879;1283;63920;-23
2021/12/28 13:21:57;;;;;;;15.00;12.50;;;;;;;;;;106304;1283;64095;-30
2021/12/28 13:24:25;;;;;;;14.60;11.70;;;;;;;;;;106866;1280;64113;-31
2021/12/28 13:26:53;;;;;;;14.70;12.40;;;;;;;;;;106697;1282;64017;-30
2021/12/28 13:29:28;;;;;;;14.10;11.70;;;;;;;;;;106868;1282;63898;-31
2021/12/28 13:32:10;;;;;;;13.10;11.70;;;;;;;;;;106614;1284;64223;-30
2021/12/28 13:35:00;;;;;;;16.70;12.30;;;;;;;;;;106579;1284;64071;-32
2021/12/28 13:37:30;;;;;;;15.90;12.20;;;;;;;;;;106726;1281;65552;-30
2021/12/28 13:40:06;;;;;;;14.90;12.20;;;;;;;;;;106843;1281;63970;-34
2021/12/28 13:42:33;;;;;;;14.80;12.60;;;;;;;;;;106884;1285;64029;-23
2021/12/28 13:45:00;;;;;;;16.20;12.90;;;;;;;;;;106820;1282;63905;-23
2021/12/28 13:47:27;;;;;;;14.80;12.60;;;;;;;;;;106828;1281;63933;-31
2021/12/28 13:50:02;;;;;;;14.00;11.90;;;;;;;;;;106698;1285;64042;-30
2021/12/28 13:52:39;;;;;;;15.50;12.60;;;;;;;;;;106573;1282;63929;-23
2021/12/28 13:55:06;;;;;;;15.30;12.80;;;;;;;;;;106736;1282;63876;-31
2021/12/28 13:57:33;;;;;;;15.80;12.40;;;;;;;;;;106843;1281;64039;-23
2021/12/28 14:00:00;;;;;;;18.40;12.40;;;;;;;;;;106824;1281;63906;-26
2021/12/28 14:02:27;;;;;;;15.10;13.00;;;;;;;;;;106852;1281;64034;-31
2021/12/28 14:04:54;;;;;;;14.70;13.20;;;;;;;;;;107066;1264;63902;-40
2021/12/28 14:07:21;;;;;;;15.80;12.70;;;;;;;;;;106934;1283;63897;-28
2021/12/28 14:09:51;;;;;;;15.40;13.40;;;;;;;;;;107040;1279;64516;-23
2021/12/28 14:12:18;;;;;;;14.60;12.40;;;;;;;;;;107041;1279;64000;-29
2021/12/28 14:14:46;;;;;;;15.90;14.30;;;;;;;;;;107000;1277;63958;-31
2021/12/28 14:17:17;;;;;;;15.20;13.00;;;;;;;;;;106894;1277;63983;-32
2021/12/28 14:19:51;;;;;;;16.70;13.30;;;;;;;;;;106904;1271;63971;-32
2021/12/28 14:22:19;;;;;;;16.20;13.00;;;;;;;;;;106677;1279;249135;-30
2021/12/28 14:24:54;;;;;;;16.30;13.70;;;;;;;;;;107005;1279;63890;-23